Flight Track Log - Related Links

Times and Time Zones

All times are in EDT time to prevent confusion due to time zone crossing. See the SWA580 flight status page for this flight to view local times or setup timezone preferences in your user account.

Time Position Orientation Groundspeed Altitude Reporting Facility
EDT Latitude Longitude Course Direction KTS MPH feet Rate Location/Type
Wed 05:44:05 PM 38.6242 -90.3022 194° South 226 260 7,000  Level Kansas City Center
Wed 05:45:07 PM 38.5750 -90.3569 221° Southwest 259 298 10,400 2,661 Climbing Kansas City Center
Wed 05:46:09 PM 38.5064 -90.4275 219° Southwest 307 353 12,500 2,855 Climbing Kansas City Center
Wed 05:47:11 PM 38.4192 -90.5175 219° Southwest 353 406 16,300 3,339 Climbing Kansas City Center
Wed 05:48:00 PM 38.2474 -90.6859 218° Southwest  Level FlightAware Approximate
Wed 05:48:13 PM 38.3303 -90.6097 219° Southwest 377 434 19,400  Level Kansas City Center
Wed 05:49:15 PM 38.2428 -90.6992 219° Southwest 400 460 22,300 2,640 Climbing Kansas City Center
Wed 05:50:18 PM 38.1475 -90.7853 215° Southwest 408 470 24,900 2,304 Climbing Kansas City Center
Wed 05:51:20 PM 38.0356 -90.8269 196° South 419 482 27,100 2,032 Climbing Kansas City Center
Wed 05:52:22 PM 37.9267 -90.8722 198° South 422 486 29,100 1,984 Climbing Kansas City Center
Wed 05:53:24 PM 37.8122 -90.9183 198° South 429 494 31,200 1,403 Climbing Kansas City Center
Wed 05:54:26 PM 37.6792 -90.9725 198° South 422 486 32,000 387 Climbing Kansas City Center
Wed 05:55:28 PM 37.5706 -91.0161 198° South 422 486 32,000 242 Level Kansas City Center
Wed 05:56:30 PM 37.4594 -91.0628 198° South 419 482 32,500 484 Climbing Kansas City Center
Wed 05:57:32 PM 37.3492 -91.1100 199° South 418 481 33,000 242 Climbing Kansas City Center
Wed 05:58:34 PM 37.2158 -91.1647 198° South 417 480 33,000 639 Level Kansas City Center
Wed 05:59:34 PM 37.1061 -91.2100 198° South 415 478 34,300 1,600 Climbing Memphis Center
Wed 06:00:34 PM 36.9994 -91.2556 199° South 415 478 36,200 1,400 Climbing Memphis Center
Wed 06:01:34 PM 36.8908 -91.2986 198° South 420 483 37,100 750 Climbing Memphis Center
Wed 06:02:34 PM 36.7906 -91.3467 201° Southwest 420 483 37,700 1,000 Climbing Memphis Center
Wed 06:03:34 PM 36.6817 -91.4075 204° Southwest 430 495 39,100 1,150 Climbing Memphis Center
Wed 06:04:34 PM 36.5728 -91.4628 202° Southwest 435 501 40,000 450 Climbing Memphis Center
Wed 06:05:34 PM 36.4533 -91.5308 205° Southwest 435 501 40,000  Level Memphis Center
Wed 06:06:34 PM 36.3422 -91.5911 204° Southwest 435 501 40,000  Level Memphis Center
Wed 06:07:34 PM 36.2311 -91.6486 203° Southwest 435 501 40,000  Level Memphis Center
Wed 06:08:34 PM 36.1264 -91.7036 203° Southwest 435 501 40,000  Level Memphis Center
Wed 06:09:34 PM 36.0172 -91.7633 204° Southwest 435 501 40,000  Level Memphis Center
Wed 06:10:34 PM 35.9228 -91.8156 204° Southwest 423 487 40,000  Level Memphis Center
Wed 06:11:34 PM 35.8158 -91.8700 202° Southwest 423 487 40,000  Level Memphis Center
Wed 06:12:34 PM 35.7047 -91.9292 203° Southwest 423 487 40,000  Level Memphis Center
Wed 06:13:34 PM 35.5975 -91.9861 203° Southwest 423 487 40,000  Level Memphis Center
Wed 06:14:34 PM 35.4883 -92.0450 204° Southwest 423 487 40,000  Level Memphis Center
Wed 06:15:34 PM 35.3792 -92.1014 203° Southwest 423 487 40,000  Level Memphis Center
Wed 06:16:34 PM 35.2697 -92.1578 203° Southwest 423 487 40,000  Level Memphis Center
Wed 06:17:34 PM 35.1625 -92.2164 204° Southwest 423 487 40,000  Level Memphis Center
Wed 06:18:34 PM 35.0533 -92.2697 202° Southwest 423 487 40,000  Level Memphis Center
Wed 06:19:34 PM 34.9461 -92.3256 203° Southwest 423 487 40,000  Level Memphis Center
Wed 06:20:34 PM 34.8303 -92.3861 203° Southwest 428 493 40,000  Level Memphis Center
Wed 06:21:34 PM 34.7231 -92.4417 203° Southwest 435 501 40,000  Level Memphis Center
Wed 06:22:34 PM 34.5989 -92.5067 203° Southwest 435 501 40,000  Level Memphis Center
Wed 06:23:34 PM 34.4850 -92.5619 202° Southwest 441 507 40,000  Level Memphis Center
Wed 06:24:34 PM 34.3733 -92.6219 204° Southwest 441 507 40,000  Level Memphis Center
Wed 06:25:34 PM 34.2597 -92.6792 203° Southwest 441 507 40,000  Level Memphis Center
Wed 06:27:54 PM 34.0139 -92.8108 204° Southwest 423 487 40,000  Level Fort Worth Center
Wed 06:28:54 PM 33.9031 -92.8642 202° Southwest 433 498 40,000  Level Fort Worth Center
Wed 06:29:54 PM 33.7878 -92.9075 197° South 433 498 40,000  Level Fort Worth Center
Wed 06:30:54 PM 33.6703 -92.9486 196° South 438 504 40,000  Level Fort Worth Center
Wed 06:31:54 PM 33.5528 -92.9894 196° South 438 504 40,000  Level Fort Worth Center
Wed 06:32:54 PM 33.4353 -93.0303 196° South 438 504 40,000  Level Fort Worth Center
Wed 06:33:54 PM 33.3178 -93.0733 197° South 438 504 40,000  Level Fort Worth Center
Wed 06:34:54 PM 33.1981 -93.1114 195° South 438 504 40,000  Level Fort Worth Center
Wed 06:35:54 PM 33.0806 -93.1542 197° South 438 504 40,000  Level Fort Worth Center
Wed 06:36:54 PM 32.9608 -93.1947 196° South 438 504 40,000  Level Fort Worth Center
Wed 06:37:54 PM 32.8453 -93.2322 195° South 438 504 40,000  Level Fort Worth Center
Wed 06:38:54 PM 32.7297 -93.2747 197° South 438 504 40,000  Level Fort Worth Center
Wed 06:39:54 PM 32.6142 -93.3144 196° South 433 498 40,000  Level Fort Worth Center
Wed 06:40:54 PM 32.4939 -93.3347 188° South 433 498 40,000  Level Fort Worth Center
Wed 06:41:54 PM 32.3753 -93.3475 185° South 428 493 40,000  Level Fort Worth Center
Wed 06:44:18 PM 32.0956 -93.3822 186° South 427 491 40,000  Level Houston Center
Wed 06:45:20 PM 31.9772 -93.3956 185° South 425 489 40,000  Level Houston Center
Wed 06:46:22 PM 31.8353 -93.4119 186° South 428 493 40,000  Level Houston Center
Wed 06:47:23 PM 31.7172 -93.4247 185° South 427 491 40,000  Level Houston Center
Wed 06:48:25 PM 31.5964 -93.4375 185° South 432 497 40,000  Level Houston Center
Wed 06:49:27 PM 31.4772 -93.4481 184° South 433 498 40,000  Level Houston Center
Wed 06:50:29 PM 31.3575 -93.4556 183° South 433 498 40,000  Level Houston Center
Wed 06:51:31 PM 31.2336 -93.4636 183° South 437 503 40,000 -98 Level Houston Center
Wed 06:52:32 PM 31.1114 -93.4725 184° South 440 506 39,800 -829 Descending Houston Center
Wed 06:53:34 PM 30.9692 -93.5036 191° South 432 497 38,300 -1,403 Descending Houston Center
Wed 06:54:36 PM 30.8506 -93.5375 194° South 438 504 36,900 -1,548 Descending Houston Center
Wed 06:55:38 PM 30.7369 -93.5892 201° Southwest 439 505 35,100 -1,902 Descending Houston Center
Wed 06:56:39 PM 30.6772 -93.7089 240° Southwest 447 514 33,000 -2,341 Descending Houston Center
Wed 06:57:41 PM 30.6478 -93.8469 256° West 446 513 30,300 -2,613 Descending Houston Center
Wed 06:58:43 PM 30.6161 -93.9850 255° West 447 514 27,600 -2,806 Descending Houston Center
Wed 06:59:45 PM 30.5789 -94.1528 256° West 451 519 24,500 -2,565 Descending Houston Center
Wed 07:00:47 PM 30.5478 -94.2839 255° West 434 499 22,300 -1,900 Descending Houston Center
Wed 07:01:45 PM 30.5222 -94.4092 257° West 390 449 20,700 -1,512 Descending Houston Center
Wed 07:02:50 PM 30.4853 -94.5297 250° West 373 429 19,200 -1,805 Descending Houston Center
Wed 07:03:48 PM 30.4256 -94.6256 234° Southwest 365 420 17,000 -2,168 Descending Houston Center
Wed 07:04:49 PM 30.3653 -94.7181 233° Southwest 359 413 14,900 -1,967 Descending Houston Center
Wed 07:05:50 PM 30.3047 -94.8106 233° Southwest 351 404 13,000 -891 Descending Houston Center
Wed 07:06:57 PM 30.2406 -94.9106 233° Southwest 344 396 13,000  Level Houston Center
Wed 07:07:58 PM 30.1839 -95.0000 234° Southwest 344 396 13,000 -341 Level Houston Center
Wed 07:09:00 PM 30.1139 -95.0811 225° Southwest 361 415 12,300 -829 Descending Houston Center
Wed 07:10:01 PM 30.0189 -95.1219 200° South 360 414 11,300 -984 Descending Houston Center
Wed 07:11:02 PM 29.9261 -95.1622 201° Southwest 351 404 10,300 -738 Descending Houston Center
Wed 07:12:03 PM 29.8350 -95.2000 200° South 306 352 9,800 -912 Descending Houston Center
Wed 07:13:07 PM 29.7611 -95.2336 202° Southwest 318 366 8,400 -1,286 Descending Houston Center
Wed 07:14:09 PM 29.6847 -95.2661 200° South 296 341 7,100 -1,008 Descending Houston Center
Wed 07:15:06 PM 29.5939 -95.2483 170° South 266 306 6,400 -750 Descending Houston Center
Wed 07:16:01 PM 29.5389 -95.2672 197° South 242 278 5,700 -1,078 Descending Houston Center
Wed 07:17:14 PM 29.4842 -95.3339 227° Southwest 232 267 4,100 -1,200 Descending Houston Center
Wed 07:18:16 PM 29.5136 -95.3853 303° West 226 260 3,000 -1,081 Descending Houston Center
Wed 07:19:05 PM 29.5592 -95.3728 13° North 183 211 2,100 -931 Descending Houston Center
Wed 07:20:12 PM 29.5975 -95.3322 43° Northeast 143 165 1,200 -797 Descending Houston Center
Wed 07:21:13 PM 29.6256 -95.2975 47° Northeast 141 162 400 -787 Descending Houston Center

Login

Don't have an account? Register now (free) for customized features, flight alerts, and more!